Detall de PIREP

Printer-friendly versionPDF version

[2008/12/26 07:17:00]
Flight IATA:CT0001
Pilot Number:041
Company ICAO:CAT
Aircraft Type:F50/A
PAX:25
Departing Airport: LERS
Destination Airport: LEVC
Alternate Airport:LEAL
Online: VATSIM
Route:EBROX3R B28 LOTOS B28 SOPET1C
Flight Level:FL150
No Slew and time accel
No pause
Crash detect
Detect pilot in Cockpit between each 30 and 45 minutes
07:17 Zero fuel Weight: 36922 Lbs, Fuel Weight: 4503 Lbs
07:17 VATSIM:LERS 260700Z VRB02KT 9999 FEW040 BKN070 04/01 Q1013
07:17 VATSIM:LEVC 260700Z 32010KT 9999 FEW030 SCT040 05/M02 Q1013 NOSIG
07:18 VOICE CATALONIAN
07:21 Parking Brakes off
07:28 Take-off
07:28 Take off Weight: 41347 Lbs
07:28 Wind: 073º @ 001 Knots Heading: 247º
07:28 POS N41º 08´ 46´´ E001º 09´ 48´´
07:28 Gear Up: 145 Knots
07:28 Flaps:1 at 145 Knots
07:29 Flaps:0 at 176 Knots
07:43 Wind:044º@024 Knots Heading: 227º Ground Speed: 249 Knots Altitude 12749
ft
07:45 TOC
07:45 Fuel Weight: 3975 Lb
07:46 TOD
07:46 Fuel Weight: 3944 Lb
07:58 Wind:014º@013 Knots Heading: 235º Ground Speed: 233 Knots Altitude 4524 ft
08:10 Flaps:1 at 194 Knots
08:11 Gear Down: 173 Knots
08:11 Flaps:2 at 141 Knots
08:12 Flaps:3 at 128 Knots
08:12 Flaps:4 at 118 Knots
08:13 Wind:293º@006 Knots Heading: 295º Ground Speed: 107 Knots Altitude 905 ft
08:13 Flaps:5 at 113 Knots
08:13 Flaps:6 at 106 Knots
08:14 TouchDown:Rate -31 ft/min Speed: 86 Knots
08:14 Flaps:0 at 65 Knots
08:14 VATSIM:LEVC 260800Z 27006KT 9999 FEW030 SCT060 04/M01 Q1013 NOSIG
08:14 Land
08:14 Wind:293º@006 Knots
08:14 Heading: 293º
08:14 Flight Duration: 00:46
08:14 Landing Weight: 40408 Lbs
08:14 POS N39º 29´ 17´´ W000º 28´ 43´´
08:22 Parking brakes on
08:22 Block to Block Duration: 01:01
08:22 Final Fuel: 3459 Lbls
08:22 Spent Fuel: 1044 Lbls
08:22 Fligh
t Length: 167 NM
08:22 TOD Land Length: 100 NM

Exportar CSV

Powered by Drupal - Modified by Danger4k